Antwerp, New York
Current Conditions -  °F | °C
As of 4:58 AM on Friday 31 Oct 2014 (Local Time) from KGTB Reporting Station
Few Clouds Few Clouds  
Wind Chill: -1°   Ceiling: Unl
Heat Index:   Visibility: 10mi
Dew Point:   Wind: 5mph
Humidity: 99%   Direction: 110°ESE
Pressure: 30"   Gusts: NA
Location:  44.2°N, 75.61°W
Report Text: KGTB 310858Z AUTO 11004KT 10SM FEW110 01/01 A3000 RMK AO2 SLP166 T00090008 56002
Loading
Personal Weather Stations






























Interactive Weather Map
Tropical Storm Tracking
New forecast layout! Learn more

10-Day Weather Forecast

Advertisements
Track Severe Weather on mobile